Fly Mediterranean

Fly Mediterranean VA! Vive la experiencia Fly Mediterranean



 INFORMACIÓN METAR y TAF
METAR FOR GMAD
ADDS - METARS form results

(2206 UTC 15 August 2022)
Data provider http://aviationweather.gov/metar/data/
 
METAR text: GMAD 152200Z 00000KT 8000 NSC 21/17 Q1012 NOSIG
Conditions at: GMAD (AL MASSIRA MC , MA) observed 2200 UTC 15 August 2022
Temperature: 21.0°C (70°F)
Dewpoint: 17.0°C (63°F) [RH = 78%]
Pressure (altimeter): 29.88 inches Hg (1012.0 mb)
Winds: calm
Visibility: 5 miles ( 8 km)
Ceiling: at least 12,000 feet AGL
Clouds: sky clear below 12,000 feet AGL
Weather: no significant weather observed at this time

METAR text: GMAD 152130Z 20005KT 170V230 8000 NSC 21/17 Q1012 NOSIG
Conditions at: GMAD (AL MASSIRA MC , MA) observed 2130 UTC 15 August 2022
Temperature: 21.0°C (70°F)
Dewpoint: 17.0°C (63°F) [RH = 78%]
Pressure (altimeter): 29.88 inches Hg (1012.0 mb)
Winds: from the SSW (200 degrees) at 6 MPH (5 knots; 2.6 m/s)
Visibility: 5 miles ( 8 km)
Ceiling: at least 12,000 feet AGL
Clouds: sky clear below 12,000 feet AGL
Weather: no significant weather observed at this time

Forecast for: GMAD (AL MASSIRA MC , MA)
Text: TAF GMAD 151700Z 1518/1624 20008KT 8000 SCT020
Forecast period: 1800 UTC 15 August 2022 to 0000 UTC 17 August 2022
Forecast type: FROM: standard forecast or significant change
Winds: from the SSW (200 degrees) at 9 MPH (8 knots; 4.1 m/s)
Visibility: 5 miles (8 km)
Ceiling: at least 12,000 feet AGL
Clouds: scattered clouds at 2000 feet AGL
Weather: no significant weather forecast for this period
Text: TEMPO 1604/1610 2000 BR BKN005
Forecast period: 0400 to 1000 UTC 16 August 2022
Forecast type: TEMPORARY: The following changes expected for less than half the time period
Visibility: 1.24 miles (2.00 km)
Ceiling: 500 feet AGL
Clouds: broken clouds at 500 feet AGL
Weather: BR  (mist)

 MAPA DE AEROPUERTO

 INFORMACIÓN DE PISTA

Fatal error: Uncaught Error: Call to a member function fetch_assoc() on bool in /homepages/25/d824001064/htdocs/vam/airport_info.php:63 Stack trace: #0 /homepages/25/d824001064/htdocs/vam/main_index.php(590): include() #1 /homepages/25/d824001064/htdocs/vam/index.php(42): include('/homepages/25/d...') #2 {main} thrown in /homepages/25/d824001064/htdocs/vam/airport_info.php on line 63